首页
METAR-TAF:

METAR-TAF

机场 :

Leesburg, 佛罗里达州, 美国

纬度: 28-49-21N, 经度: 081-48-32W, 海拔: 24米

当前天气观测

该预报发布于19分钟前的09:36 UTC
风速7节,风向
温度 24°C
湿度 94%
气压 1017 hPa
能見度: 16.1公里
少量云层高于1100英尺
阴天层高于3400英尺

METAR: KLEE 190936Z AUTO 08007KT 10SM FEW011 OVC034 24/23 A3003 RMK AO2 RAE11 P0001 T02390228

时间: 05:55 (09:55 UTC)

预报

该预报发布于4小时和19分钟前的05:36 UTC
预报有效从19日的 06点(UTC)到 20日的 06点(UTC)
风速10节,风向东转东北
能見度: 10公里
散云层高于2500英尺
多云层高于4000英尺
附近有阵雨
从 19日的 1300点(UTC)
风速15节,风向,有时为24节阵风
能見度: 10公里
散云层高于2500英尺
多云层高于3500英尺
附近有阵雨
从 19日的 1700点(UTC)
风速20节,风向,有时为28节阵风
能見度: 10公里
多云层高于3500英尺
附近有阵雨
从 20日的 0100点(UTC)
风速12节,风向东转东北
能見度: 10公里
多云层高于3500英尺
附近有阵雨
从 20日的 0300点(UTC)
风速10节,风向东转东北
能見度: 10公里
散云层高于3500英尺

TAF: KLEE 190536Z 1906/2006 07010KT P6SM VCSH SCT025 BKN040 FM191300 08015G24KT P6SM VCSH SCT025 BKN035 FM191700 09020G28KT P6SM VCSH BKN035 FM200100 06012KT P6SM VCSH BKN035 FM200300 06010KT P6SM SCT035

超过4000个机场的气象观测和天气预报(METAR&TAF报告)。

可查询的气象台以黄色和红色小点在地图上表示。

将鼠标移到小点上方,可查看气象台名称。

然后点击查看天气观测和预报。

如需切换地图:点击带黑十字的绿色按钮放大地图;点击带横线的绿色按钮缩小地图;或者点击绿色箭头查看邻近地区的地图。


METAR-TAF: